sensor_id;sensor_type;location;lat;lon;timestamp;P1;durP1;ratioP1;P2;durP2;ratioP2
3155;SDS011;1588;50.892;7.082;2022-11-04T00:00:51;1.03;;;0.87;;
3155;SDS011;1588;50.892;7.082;2022-11-04T00:05:53;4.37;;;1.40;;
3155;SDS011;1588;50.892;7.082;2022-11-04T00:10:56;1.30;;;1.00;;
3155;SDS011;1588;50.892;7.082;2022-11-04T00:16:18;2.97;;;1.50;;
3155;SDS011;1588;50.892;7.082;2022-11-04T00:21:38;1.50;;;1.10;;
3155;SDS011;1588;50.892;7.082;2022-11-04T00:26:58;2.20;;;1.10;;
3155;SDS011;1588;50.892;7.082;2022-11-04T00:32:19;1.10;;;0.90;;
3155;SDS011;1588;50.892;7.082;2022-11-04T00:37:49;2.70;;;1.20;;
3155;SDS011;1588;50.892;7.082;2022-11-04T00:42:51;2.60;;;1.40;;
3155;SDS011;1588;50.892;7.082;2022-11-04T00:47:55;2.53;;;1.40;;
3155;SDS011;1588;50.892;7.082;2022-11-04T00:52:58;1.50;;;1.30;;
3155;SDS011;1588;50.892;7.082;2022-11-04T00:58:01;10.10;;;2.00;;
3155;SDS011;1588;50.892;7.082;2022-11-04T01:03:05;2.07;;;1.90;;
3155;SDS011;1588;50.892;7.082;2022-11-04T01:08:07;10.90;;;4.50;;
3155;SDS011;1588;50.892;7.082;2022-11-04T01:13:09;4.77;;;2.57;;
3155;SDS011;1588;50.892;7.082;2022-11-04T01:18:13;3.30;;;1.50;;
3155;SDS011;1588;50.892;7.082;2022-11-04T01:23:15;1.83;;;1.27;;
3155;SDS011;1588;50.892;7.082;2022-11-04T01:28:18;1.37;;;1.03;;
3155;SDS011;1588;50.892;7.082;2022-11-04T01:33:22;2.77;;;1.30;;
3155;SDS011;1588;50.892;7.082;2022-11-04T01:38:25;6.13;;;2.10;;
3155;SDS011;1588;50.892;7.082;2022-11-04T01:43:41;1.67;;;1.47;;
3155;SDS011;1588;50.892;7.082;2022-11-04T01:48:47;1.80;;;1.10;;
3155;SDS011;1588;50.892;7.082;2022-11-04T01:53:50;1.20;;;1.00;;
3155;SDS011;1588;50.892;7.082;2022-11-04T01:58:58;1.40;;;1.30;;
3155;SDS011;1588;50.892;7.082;2022-11-04T02:04:09;1.17;;;0.93;;
3155;SDS011;1588;50.892;7.082;2022-11-04T02:09:27;6.17;;;1.10;;
3155;SDS011;1588;50.892;7.082;2022-11-04T02:14:49;1.53;;;0.77;;
3155;SDS011;1588;50.892;7.082;2022-11-04T02:20:10;2.60;;;1.00;;
3155;SDS011;1588;50.892;7.082;2022-11-04T02:25:31;3.57;;;1.03;;
3155;SDS011;1588;50.892;7.082;2022-11-04T02:30:59;1.60;;;1.40;;
3155;SDS011;1588;50.892;7.082;2022-11-04T02:36:09;2.33;;;1.20;;
3155;SDS011;1588;50.892;7.082;2022-11-04T02:41:20;1.30;;;1.07;;
3155;SDS011;1588;50.892;7.082;2022-11-04T02:46:34;1.90;;;1.17;;
3155;SDS011;1588;50.892;7.082;2022-11-04T02:51:41;1.37;;;1.27;;
3155;SDS011;1588;50.892;7.082;2022-11-04T02:56:48;3.03;;;1.40;;
3155;SDS011;1588;50.892;7.082;2022-11-04T03:01:53;2.17;;;1.20;;
3155;SDS011;1588;50.892;7.082;2022-11-04T03:07:07;5.77;;;1.63;;
3155;SDS011;1588;50.892;7.082;2022-11-04T03:18:11;3.43;;;1.40;;
3155;SDS011;1588;50.892;7.082;2022-11-04T03:24:04;3.63;;;1.00;;
3155;SDS011;1588;50.892;7.082;2022-11-04T03:29:48;4.07;;;1.10;;
3155;SDS011;1588;50.892;7.082;2022-11-04T03:41:14;2.23;;;1.00;;
3155;SDS011;1588;50.892;7.082;2022-11-04T03:46:40;4.77;;;1.10;;
3155;SDS011;1588;50.892;7.082;2022-11-04T03:52:21;1.60;;;1.10;;
3155;SDS011;1588;50.892;7.082;2022-11-04T03:58:02;5.20;;;1.73;;
3155;SDS011;1588;50.892;7.082;2022-11-04T04:03:23;1.33;;;1.13;;
3155;SDS011;1588;50.892;7.082;2022-11-04T04:08:41;3.53;;;1.13;;
3155;SDS011;1588;50.892;7.082;2022-11-04T04:14:08;4.07;;;1.40;;
3155;SDS011;1588;50.892;7.082;2022-11-04T04:19:55;2.40;;;1.37;;
3155;SDS011;1588;50.892;7.082;2022-11-04T04:25:18;3.03;;;1.53;;
3155;SDS011;1588;50.892;7.082;2022-11-04T04:37:07;13.27;;;1.40;;
3155;SDS011;1588;50.892;7.082;2022-11-04T04:42:44;3.00;;;1.10;;
3155;SDS011;1588;50.892;7.082;2022-11-04T04:48:16;5.37;;;1.60;;
3155;SDS011;1588;50.892;7.082;2022-11-04T04:54:04;3.00;;;1.07;;
3155;SDS011;1588;50.892;7.082;2022-11-04T04:59:20;2.60;;;1.40;;
3155;SDS011;1588;50.892;7.082;2022-11-04T05:05:11;1.53;;;0.97;;
3155;SDS011;1588;50.892;7.082;2022-11-04T05:16:23;3.80;;;1.20;;
3155;SDS011;1588;50.892;7.082;2022-11-04T05:21:43;5.60;;;1.80;;
3155;SDS011;1588;50.892;7.082;2022-11-04T05:32:14;11.90;;;1.90;;
3155;SDS011;1588;50.892;7.082;2022-11-04T05:37:29;5.80;;;1.50;;
3155;SDS011;1588;50.892;7.082;2022-11-04T05:42:42;3.00;;;1.63;;
3155;SDS011;1588;50.892;7.082;2022-11-04T05:47:46;5.70;;;1.40;;
3155;SDS011;1588;50.892;7.082;2022-11-04T05:52:55;2.00;;;1.40;;
3155;SDS011;1588;50.892;7.082;2022-11-04T06:04:54;2.83;;;1.37;;
3155;SDS011;1588;50.892;7.082;2022-11-04T06:10:09;1.63;;;1.37;;
3155;SDS011;1588;50.892;7.082;2022-11-04T06:15:11;6.90;;;1.43;;
3155;SDS011;1588;50.892;7.082;2022-11-04T06:20:27;4.13;;;2.00;;
3155;SDS011;1588;50.892;7.082;2022-11-04T06:25:30;1.87;;;1.27;;
3155;SDS011;1588;50.892;7.082;2022-11-04T06:30:32;6.00;;;1.87;;
3155;SDS011;1588;50.892;7.082;2022-11-04T06:35:37;4.67;;;1.60;;
3155;SDS011;1588;50.892;7.082;2022-11-04T06:40:41;4.00;;;1.30;;
3155;SDS011;1588;50.892;7.082;2022-11-04T06:45:44;4.63;;;1.73;;
3155;SDS011;1588;50.892;7.082;2022-11-04T06:50:56;5.43;;;2.10;;
3155;SDS011;1588;50.892;7.082;2022-11-04T06:56:02;5.13;;;1.67;;
3155;SDS011;1588;50.892;7.082;2022-11-04T07:01:06;3.23;;;1.90;;
3155;SDS011;1588;50.892;7.082;2022-11-04T07:06:10;9.00;;;1.93;;
3155;SDS011;1588;50.892;7.082;2022-11-04T07:11:12;8.20;;;2.20;;
3155;SDS011;1588;50.892;7.082;2022-11-04T07:16:21;4.60;;;1.70;;
3155;SDS011;1588;50.892;7.082;2022-11-04T07:21:24;15.63;;;2.77;;
3155;SDS011;1588;50.892;7.082;2022-11-04T07:26:30;5.00;;;2.10;;
3155;SDS011;1588;50.892;7.082;2022-11-04T07:31:33;6.40;;;2.50;;
3155;SDS011;1588;50.892;7.082;2022-11-04T07:36:42;5.80;;;1.90;;
3155;SDS011;1588;50.892;7.082;2022-11-04T07:41:44;9.67;;;3.83;;
3155;SDS011;1588;50.892;7.082;2022-11-04T07:46:47;8.53;;;2.23;;
3155;SDS011;1588;50.892;7.082;2022-11-04T07:51:51;10.10;;;2.37;;
3155;SDS011;1588;50.892;7.082;2022-11-04T07:56:58;14.93;;;2.30;;
3155;SDS011;1588;50.892;7.082;2022-11-04T08:02:03;9.43;;;2.10;;
3155;SDS011;1588;50.892;7.082;2022-11-04T08:07:15;3.63;;;1.93;;
3155;SDS011;1588;50.892;7.082;2022-11-04T08:12:18;16.40;;;1.87;;
3155;SDS011;1588;50.892;7.082;2022-11-04T08:17:23;4.13;;;1.50;;
3155;SDS011;1588;50.892;7.082;2022-11-04T08:22:27;3.70;;;2.20;;
3155;SDS011;1588;50.892;7.082;2022-11-04T08:27:33;4.10;;;2.13;;
3155;SDS011;1588;50.892;7.082;2022-11-04T08:32:35;1.87;;;1.60;;
3155;SDS011;1588;50.892;7.082;2022-11-04T08:37:39;7.67;;;2.13;;
3155;SDS011;1588;50.892;7.082;2022-11-04T08:42:42;10.03;;;1.80;;
3155;SDS011;1588;50.892;7.082;2022-11-04T08:47:44;15.90;;;2.67;;
3155;SDS011;1588;50.892;7.082;2022-11-04T08:52:49;6.30;;;1.83;;
3155;SDS011;1588;50.892;7.082;2022-11-04T08:57:52;1.77;;;1.67;;
3155;SDS011;1588;50.892;7.082;2022-11-04T09:02:56;10.13;;;2.17;;
3155;SDS011;1588;50.892;7.082;2022-11-04T09:08:01;3.30;;;1.50;;
3155;SDS011;1588;50.892;7.082;2022-11-04T09:13:04;6.10;;;1.40;;
3155;SDS011;1588;50.892;7.082;2022-11-04T09:18:11;9.03;;;1.70;;
3155;SDS011;1588;50.892;7.082;2022-11-04T09:23:14;10.70;;;1.83;;
3155;SDS011;1588;50.892;7.082;2022-11-04T09:28:17;7.53;;;2.43;;
3155;SDS011;1588;50.892;7.082;2022-11-04T09:33:20;7.10;;;2.00;;
3155;SDS011;1588;50.892;7.082;2022-11-04T09:38:23;4.23;;;2.10;;
3155;SDS011;1588;50.892;7.082;2022-11-04T09:43:29;8.40;;;2.50;;
3155;SDS011;1588;50.892;7.082;2022-11-04T09:48:41;5.47;;;2.00;;
3155;SDS011;1588;50.892;7.082;2022-11-04T09:53:48;4.80;;;1.90;;
3155;SDS011;1588;50.892;7.082;2022-11-04T09:58:54;6.30;;;1.83;;
3155;SDS011;1588;50.892;7.082;2022-11-04T10:04:07;3.43;;;1.90;;
3155;SDS011;1588;50.892;7.082;2022-11-04T10:09:31;4.47;;;2.30;;
3155;SDS011;1588;50.892;7.082;2022-11-04T10:14:56;5.93;;;2.37;;
3155;SDS011;1588;50.892;7.082;2022-11-04T10:20:17;5.87;;;1.67;;
3155;SDS011;1588;50.892;7.082;2022-11-04T10:25:31;5.13;;;1.93;;
3155;SDS011;1588;50.892;7.082;2022-11-04T10:30:42;3.77;;;1.80;;
3155;SDS011;1588;50.892;7.082;2022-11-04T10:35:48;4.50;;;1.70;;
3155;SDS011;1588;50.892;7.082;2022-11-04T10:40:58;8.03;;;1.30;;
3155;SDS011;1588;50.892;7.082;2022-11-04T10:46:08;10.80;;;2.17;;
3155;SDS011;1588;50.892;7.082;2022-11-04T10:51:30;9.70;;;1.87;;
3155;SDS011;1588;50.892;7.082;2022-11-04T10:56:44;6.90;;;1.60;;
3155;SDS011;1588;50.892;7.082;2022-11-04T11:01:51;5.13;;;2.00;;
3155;SDS011;1588;50.892;7.082;2022-11-04T11:06:55;6.87;;;1.77;;
3155;SDS011;1588;50.892;7.082;2022-11-04T11:12:02;3.80;;;1.40;;
3155;SDS011;1588;50.892;7.082;2022-11-04T11:22:39;3.83;;;1.40;;
3155;SDS011;1588;50.892;7.082;2022-11-04T11:27:52;9.67;;;1.40;;
3155;SDS011;1588;50.892;7.082;2022-11-04T11:33:13;3.53;;;1.40;;
3155;SDS011;1588;50.892;7.082;2022-11-04T11:38:20;5.07;;;1.70;;
3155;SDS011;1588;50.892;7.082;2022-11-04T11:43:42;3.57;;;1.70;;
3155;SDS011;1588;50.892;7.082;2022-11-04T11:48:51;5.53;;;2.20;;
3155;SDS011;1588;50.892;7.082;2022-11-04T11:54:00;5.13;;;1.67;;
3155;SDS011;1588;50.892;7.082;2022-11-04T11:59:29;5.77;;;2.53;;
3155;SDS011;1588;50.892;7.082;2022-11-04T12:04:49;3.30;;;1.43;;
3155;SDS011;1588;50.892;7.082;2022-11-04T12:09:59;8.73;;;1.50;;
3155;SDS011;1588;50.892;7.082;2022-11-04T12:15:14;1.80;;;1.50;;
3155;SDS011;1588;50.892;7.082;2022-11-04T12:20:33;5.93;;;2.23;;
3155;SDS011;1588;50.892;7.082;2022-11-04T12:25:50;14.80;;;2.43;;
3155;SDS011;1588;50.892;7.082;2022-11-04T12:31:22;8.47;;;1.97;;
3155;SDS011;1588;50.892;7.082;2022-11-04T12:36:36;9.87;;;1.73;;
3155;SDS011;1588;50.892;7.082;2022-11-04T12:41:58;5.50;;;1.57;;
3155;SDS011;1588;50.892;7.082;2022-11-04T12:47:13;11.40;;;2.20;;
3155;SDS011;1588;50.892;7.082;2022-11-04T12:52:32;1.60;;;1.10;;
3155;SDS011;1588;50.892;7.082;2022-11-04T12:57:54;3.53;;;1.53;;
3155;SDS011;1588;50.892;7.082;2022-11-04T13:03:07;7.03;;;1.33;;
3155;SDS011;1588;50.892;7.082;2022-11-04T13:08:14;3.50;;;1.33;;
3155;SDS011;1588;50.892;7.082;2022-11-04T13:13:22;5.00;;;1.67;;
3155;SDS011;1588;50.892;7.082;2022-11-04T13:24:22;2.40;;;1.57;;
3155;SDS011;1588;50.892;7.082;2022-11-04T13:31:33;3.43;;;1.60;;
3155;SDS011;1588;50.892;7.082;2022-11-04T13:53:43;14.90;;;3.57;;
3155;SDS011;1588;50.892;7.082;2022-11-04T14:04:42;9.43;;;2.83;;
3155;SDS011;1588;50.892;7.082;2022-11-04T14:09:55;10.40;;;3.13;;
3155;SDS011;1588;50.892;7.082;2022-11-04T14:15:05;7.43;;;2.97;;
3155;SDS011;1588;50.892;7.082;2022-11-04T14:20:39;8.07;;;3.30;;
3155;SDS011;1588;50.892;7.082;2022-11-04T14:26:05;5.40;;;2.57;;
3155;SDS011;1588;50.892;7.082;2022-11-04T14:31:12;9.10;;;2.47;;
3155;SDS011;1588;50.892;7.082;2022-11-04T14:36:21;6.33;;;2.30;;
3155;SDS011;1588;50.892;7.082;2022-11-04T14:41:48;7.17;;;3.30;;
3155;SDS011;1588;50.892;7.082;2022-11-04T14:46:55;5.73;;;2.30;;
3155;SDS011;1588;50.892;7.082;2022-11-04T14:52:00;6.97;;;2.50;;
3155;SDS011;1588;50.892;7.082;2022-11-04T14:57:08;7.97;;;2.10;;
3155;SDS011;1588;50.892;7.082;2022-11-04T15:02:17;10.63;;;2.77;;
3155;SDS011;1588;50.892;7.082;2022-11-04T15:07:35;4.17;;;2.63;;
3155;SDS011;1588;50.892;7.082;2022-11-04T15:12:42;7.87;;;2.63;;
3155;SDS011;1588;50.892;7.082;2022-11-04T15:17:55;7.50;;;2.63;;
3155;SDS011;1588;50.892;7.082;2022-11-04T15:23:01;4.80;;;2.00;;
3155;SDS011;1588;50.892;7.082;2022-11-04T15:28:20;4.30;;;2.30;;
3155;SDS011;1588;50.892;7.082;2022-11-04T15:33:37;7.37;;;2.50;;
3155;SDS011;1588;50.892;7.082;2022-11-04T15:38:49;8.93;;;2.77;;
3155;SDS011;1588;50.892;7.082;2022-11-04T15:44:14;5.30;;;2.20;;
3155;SDS011;1588;50.892;7.082;2022-11-04T15:49:24;9.33;;;4.40;;
3155;SDS011;1588;50.892;7.082;2022-11-04T15:54:48;18.40;;;5.20;;
3155;SDS011;1588;50.892;7.082;2022-11-04T15:59:54;10.03;;;4.50;;
3155;SDS011;1588;50.892;7.082;2022-11-04T16:05:05;9.27;;;3.83;;
3155;SDS011;1588;50.892;7.082;2022-11-04T16:10:27;6.60;;;3.50;;
3155;SDS011;1588;50.892;7.082;2022-11-04T16:15:33;8.43;;;3.63;;
3155;SDS011;1588;50.892;7.082;2022-11-04T16:20:43;10.37;;;5.03;;
3155;SDS011;1588;50.892;7.082;2022-11-04T16:25:46;12.67;;;3.90;;
3155;SDS011;1588;50.892;7.082;2022-11-04T16:31:00;13.60;;;3.63;;
3155;SDS011;1588;50.892;7.082;2022-11-04T16:36:38;11.60;;;3.00;;
3155;SDS011;1588;50.892;7.082;2022-11-04T16:42:08;8.43;;;3.17;;
3155;SDS011;1588;50.892;7.082;2022-11-04T16:48:14;15.20;;;4.03;;
3155;SDS011;1588;50.892;7.082;2022-11-04T16:53:23;14.47;;;3.50;;
3155;SDS011;1588;50.892;7.082;2022-11-04T16:58:27;13.10;;;3.33;;
3155;SDS011;1588;50.892;7.082;2022-11-04T17:03:30;5.17;;;3.40;;
3155;SDS011;1588;50.892;7.082;2022-11-04T17:08:34;12.70;;;3.50;;
3155;SDS011;1588;50.892;7.082;2022-11-04T17:13:37;4.63;;;3.13;;
3155;SDS011;1588;50.892;7.082;2022-11-04T17:18:40;6.03;;;3.30;;
3155;SDS011;1588;50.892;7.082;2022-11-04T17:23:47;6.33;;;3.77;;
3155;SDS011;1588;50.892;7.082;2022-11-04T17:28:49;8.60;;;4.70;;
3155;SDS011;1588;50.892;7.082;2022-11-04T17:33:52;9.70;;;4.53;;
3155;SDS011;1588;50.892;7.082;2022-11-04T17:38:56;9.57;;;3.90;;
3155;SDS011;1588;50.892;7.082;2022-11-04T17:43:58;9.67;;;4.50;;
3155;SDS011;1588;50.892;7.082;2022-11-04T17:49:02;11.80;;;5.00;;
3155;SDS011;1588;50.892;7.082;2022-11-04T17:54:18;36.40;;;8.53;;
3155;SDS011;1588;50.892;7.082;2022-11-04T17:59:21;20.20;;;9.03;;
3155;SDS011;1588;50.892;7.082;2022-11-04T18:04:27;20.87;;;9.70;;
3155;SDS011;1588;50.892;7.082;2022-11-04T18:09:31;24.27;;;9.23;;
3155;SDS011;1588;50.892;7.082;2022-11-04T18:14:45;25.93;;;9.03;;
3155;SDS011;1588;50.892;7.082;2022-11-04T18:19:47;22.80;;;6.63;;
3155;SDS011;1588;50.892;7.082;2022-11-04T18:24:54;10.90;;;6.03;;
3155;SDS011;1588;50.892;7.082;2022-11-04T18:30:07;13.60;;;6.10;;
3155;SDS011;1588;50.892;7.082;2022-11-04T18:35:10;17.80;;;6.30;;
3155;SDS011;1588;50.892;7.082;2022-11-04T18:40:14;15.70;;;7.03;;
3155;SDS011;1588;50.892;7.082;2022-11-04T18:45:17;19.13;;;7.70;;
3155;SDS011;1588;50.892;7.082;2022-11-04T18:50:20;36.17;;;8.20;;
3155;SDS011;1588;50.892;7.082;2022-11-04T18:55:27;21.13;;;7.70;;
3155;SDS011;1588;50.892;7.082;2022-11-04T19:00:30;18.40;;;8.10;;
3155;SDS011;1588;50.892;7.082;2022-11-04T19:05:33;25.80;;;8.63;;
3155;SDS011;1588;50.892;7.082;2022-11-04T19:10:41;16.53;;;7.90;;
3155;SDS011;1588;50.892;7.082;2022-11-04T19:15:43;26.10;;;9.20;;
3155;SDS011;1588;50.892;7.082;2022-11-04T19:20:46;34.03;;;9.50;;
3155;SDS011;1588;50.892;7.082;2022-11-04T19:25:52;21.17;;;9.30;;
3155;SDS011;1588;50.892;7.082;2022-11-04T19:30:55;20.77;;;8.60;;
3155;SDS011;1588;50.892;7.082;2022-11-04T19:35:59;15.30;;;7.90;;
3155;SDS011;1588;50.892;7.082;2022-11-04T19:41:04;21.40;;;7.60;;
3155;SDS011;1588;50.892;7.082;2022-11-04T19:46:07;26.67;;;7.60;;
3155;SDS011;1588;50.892;7.082;2022-11-04T19:51:11;17.83;;;7.07;;
3155;SDS011;1588;50.892;7.082;2022-11-04T19:56:15;16.20;;;8.20;;
3155;SDS011;1588;50.892;7.082;2022-11-04T20:01:19;14.40;;;6.93;;
3155;SDS011;1588;50.892;7.082;2022-11-04T20:06:21;18.73;;;8.27;;
3155;SDS011;1588;50.892;7.082;2022-11-04T20:11:26;14.40;;;6.43;;
3155;SDS011;1588;50.892;7.082;2022-11-04T20:16:30;15.90;;;5.80;;
3155;SDS011;1588;50.892;7.082;2022-11-04T20:21:33;12.63;;;6.20;;
3155;SDS011;1588;50.892;7.082;2022-11-04T20:26:39;17.60;;;6.90;;
3155;SDS011;1588;50.892;7.082;2022-11-04T20:31:43;18.50;;;6.73;;
3155;SDS011;1588;50.892;7.082;2022-11-04T20:36:46;14.27;;;7.43;;
3155;SDS011;1588;50.892;7.082;2022-11-04T20:41:49;22.63;;;9.50;;
3155;SDS011;1588;50.892;7.082;2022-11-04T20:46:57;19.83;;;8.00;;
3155;SDS011;1588;50.892;7.082;2022-11-04T20:52:00;20.07;;;7.83;;
3155;SDS011;1588;50.892;7.082;2022-11-04T20:57:07;20.40;;;7.63;;
3155;SDS011;1588;50.892;7.082;2022-11-04T21:02:10;24.90;;;8.00;;
3155;SDS011;1588;50.892;7.082;2022-11-04T21:07:12;14.00;;;6.70;;
3155;SDS011;1588;50.892;7.082;2022-11-04T21:12:17;10.67;;;5.80;;
3155;SDS011;1588;50.892;7.082;2022-11-04T21:17:20;13.93;;;6.53;;
3155;SDS011;1588;50.892;7.082;2022-11-04T21:22:22;13.40;;;5.40;;
3155;SDS011;1588;50.892;7.082;2022-11-04T21:27:26;10.53;;;5.03;;
3155;SDS011;1588;50.892;7.082;2022-11-04T21:32:29;14.37;;;6.40;;
3155;SDS011;1588;50.892;7.082;2022-11-04T21:37:31;25.77;;;11.10;;
3155;SDS011;1588;50.892;7.082;2022-11-04T21:42:35;14.80;;;6.67;;
3155;SDS011;1588;50.892;7.082;2022-11-04T21:47:37;19.37;;;8.60;;
3155;SDS011;1588;50.892;7.082;2022-11-04T21:52:40;21.80;;;9.13;;
3155;SDS011;1588;50.892;7.082;2022-11-04T21:58:02;38.67;;;15.13;;
3155;SDS011;1588;50.892;7.082;2022-11-04T22:03:08;25.03;;;11.07;;
3155;SDS011;1588;50.892;7.082;2022-11-04T22:08:11;43.87;;;17.03;;
3155;SDS011;1588;50.892;7.082;2022-11-04T22:13:22;49.20;;;19.37;;
3155;SDS011;1588;50.892;7.082;2022-11-04T22:18:25;42.50;;;17.27;;
3155;SDS011;1588;50.892;7.082;2022-11-04T22:23:47;55.93;;;18.80;;
3155;SDS011;1588;50.892;7.082;2022-11-04T22:28:52;50.40;;;18.80;;
3155;SDS011;1588;50.892;7.082;2022-11-04T22:33:55;40.43;;;17.77;;
3155;SDS011;1588;50.892;7.082;2022-11-04T22:38:58;46.73;;;17.60;;
3155;SDS011;1588;50.892;7.082;2022-11-04T22:44:06;40.90;;;15.97;;
3155;SDS011;1588;50.892;7.082;2022-11-04T22:49:08;44.97;;;16.77;;
3155;SDS011;1588;50.892;7.082;2022-11-04T22:54:12;41.07;;;14.67;;
3155;SDS011;1588;50.892;7.082;2022-11-04T22:59:19;36.47;;;14.33;;
3155;SDS011;1588;50.892;7.082;2022-11-04T23:04:21;29.17;;;12.37;;
3155;SDS011;1588;50.892;7.082;2022-11-04T23:09:24;29.77;;;13.63;;
3155;SDS011;1588;50.892;7.082;2022-11-04T23:14:28;28.47;;;11.67;;
3155;SDS011;1588;50.892;7.082;2022-11-04T23:19:48;26.10;;;11.40;;
3155;SDS011;1588;50.892;7.082;2022-11-04T23:24:51;33.50;;;12.10;;
3155;SDS011;1588;50.892;7.082;2022-11-04T23:30:09;30.13;;;11.30;;
3155;SDS011;1588;50.892;7.082;2022-11-04T23:35:22;31.00;;;12.70;;
3155;SDS011;1588;50.892;7.082;2022-11-04T23:40:44;32.80;;;12.67;;
3155;SDS011;1588;50.892;7.082;2022-11-04T23:46:10;29.23;;;12.80;;
3155;SDS011;1588;50.892;7.082;2022-11-04T23:51:49;35.73;;;12.30;;
3155;SDS011;1588;50.892;7.082;2022-11-04T23:57:10;36.33;;;12.50;;
